createdAt,value
2022-10-28T00:02:23.823Z,48.79
2022-10-28T00:04:50.404Z,48.86
2022-10-28T00:07:16.989Z,49.21
2022-10-28T00:09:43.695Z,49.15
2022-10-28T00:12:10.291Z,49.18
2022-10-28T00:14:36.962Z,49.26
2022-10-28T00:17:03.567Z,48.98
2022-10-28T00:19:30.478Z,48.83
2022-10-28T00:21:57.079Z,49.00
2022-10-28T00:24:23.805Z,49.76
2022-10-28T00:26:50.418Z,49.94
2022-10-28T00:29:19.758Z,49.84
2022-10-28T00:31:47.290Z,50.09
2022-10-28T00:34:19.267Z,49.93
2022-10-28T00:36:47.434Z,49.64
2022-10-28T00:39:25.087Z,49.70
2022-10-28T00:41:57.096Z,49.67
2022-10-28T00:45:01.807Z,49.84
2022-10-28T00:48:02.894Z,50.38
2022-10-28T00:50:54.328Z,50.29
2022-10-28T00:53:32.365Z,50.27
2022-10-28T00:56:02.067Z,50.04
2022-10-28T00:58:29.543Z,50.17
2022-10-28T01:00:56.653Z,50.14
2022-10-28T01:03:23.687Z,50.44
2022-10-28T01:05:51.787Z,50.61
2022-10-28T01:08:19.334Z,50.31
2022-10-28T01:11:26.302Z,50.27
2022-10-28T01:14:01.756Z,50.65
2022-10-28T01:16:52.561Z,51.04
2022-10-28T01:19:44.704Z,50.95
2022-10-28T01:22:34.091Z,51.42
2022-10-28T01:25:30.505Z,51.21
2022-10-28T01:28:15.680Z,51.10
2022-10-28T01:31:21.920Z,51.02
2022-10-28T01:33:54.429Z,51.08
2022-10-28T01:36:51.964Z,51.77
2022-10-28T01:39:35.540Z,51.54
2022-10-28T01:42:14.147Z,51.66
2022-10-28T01:44:54.314Z,51.88
2022-10-28T01:47:51.683Z,52.01
2022-10-28T01:50:26.958Z,51.89
2022-10-28T01:52:57.595Z,51.50
2022-10-28T01:55:30.293Z,51.73
2022-10-28T01:58:01.259Z,51.82
2022-10-28T02:00:28.321Z,52.46
2022-10-28T02:02:56.432Z,52.25
2022-10-28T02:05:41.698Z,52.72
2022-10-28T02:08:20.096Z,52.55
2022-10-28T02:11:11.794Z,52.74
2022-10-28T02:13:44.269Z,51.88
2022-10-28T02:16:28.852Z,52.10
2022-10-28T02:18:55.412Z,51.80
2022-10-28T02:21:37.464Z,52.52
2022-10-28T02:24:28.880Z,51.73
2022-10-28T02:27:15.676Z,51.50
2022-10-28T02:29:51.111Z,51.35
2022-10-28T02:32:23.057Z,51.42
2022-10-28T02:34:55.074Z,52.01
2022-10-28T02:37:27.873Z,51.95
2022-10-28T02:40:03.005Z,53.73
2022-10-28T02:42:33.903Z,53.03
2022-10-28T02:45:11.992Z,53.93
2022-10-28T02:47:43.060Z,54.36
2022-10-28T02:50:15.717Z,54.17
2022-10-28T02:52:45.096Z,54.16
2022-10-28T02:55:11.949Z,53.45
2022-10-28T02:57:44.794Z,52.90
2022-10-28T03:00:16.374Z,53.06
2022-10-28T03:02:43.073Z,52.56
2022-10-28T03:05:10.443Z,52.75
2022-10-28T03:07:37.130Z,52.59
2022-10-28T03:10:04.107Z,52.51
2022-10-28T03:12:30.701Z,52.98
2022-10-28T03:14:57.283Z,52.73
2022-10-28T03:17:23.958Z,53.90
2022-10-28T03:19:50.547Z,53.60
2022-10-28T03:22:17.191Z,53.00
2022-10-28T03:24:43.814Z,52.60
2022-10-28T03:27:10.407Z,52.46
2022-10-28T03:29:37.021Z,52.65
2022-10-28T03:32:03.690Z,53.01
2022-10-28T03:34:30.343Z,54.05
2022-10-28T03:36:56.893Z,53.58
2022-10-28T03:39:23.611Z,53.16
2022-10-28T03:41:50.248Z,52.85
2022-10-28T03:44:16.825Z,52.83
2022-10-28T03:46:43.421Z,53.25
2022-10-28T03:49:10.041Z,52.91
2022-10-28T03:51:36.619Z,52.93
2022-10-28T03:54:03.359Z,53.05
2022-10-28T03:56:29.968Z,53.08
2022-10-28T03:58:56.537Z,53.04
2022-10-28T04:01:23.183Z,52.94
2022-10-28T04:03:49.874Z,53.23
2022-10-28T04:06:17.127Z,53.63
2022-10-28T04:08:43.759Z,53.47
2022-10-28T04:11:10.347Z,53.22
2022-10-28T04:13:36.945Z,53.13
2022-10-28T04:16:03.762Z,52.82
2022-10-28T04:18:30.501Z,53.04
2022-10-28T04:20:57.162Z,53.73
2022-10-28T04:23:23.770Z,53.25
2022-10-28T04:25:54.282Z,53.67
2022-10-28T04:28:24.131Z,54.02
2022-10-28T04:30:50.737Z,53.87
2022-10-28T04:33:17.379Z,53.55
2022-10-28T04:35:45.000Z,54.16
2022-10-28T04:38:12.940Z,53.50
2022-10-28T04:40:39.950Z,53.53
2022-10-28T04:43:08.602Z,53.64
2022-10-28T04:45:36.801Z,53.67
2022-10-28T04:48:03.678Z,53.65
2022-10-28T04:50:30.333Z,53.91
2022-10-28T04:53:00.301Z,58.61
2022-10-28T04:55:27.066Z,59.87
2022-10-28T04:58:06.220Z,57.22
2022-10-28T05:00:32.851Z,55.68
2022-10-28T05:03:03.249Z,55.04
2022-10-28T05:05:30.158Z,54.84
2022-10-28T05:07:57.154Z,54.91
2022-10-28T05:10:24.523Z,54.49
2022-10-28T05:12:51.386Z,54.76
2022-10-28T05:15:18.108Z,54.59
2022-10-28T05:17:46.539Z,56.48
2022-10-28T05:20:16.107Z,56.90
2022-10-28T05:22:48.093Z,56.09
2022-10-28T05:25:14.900Z,55.39
2022-10-28T05:27:41.704Z,55.63
2022-10-28T05:30:09.615Z,55.95
2022-10-28T05:32:36.489Z,56.59
2022-10-28T05:35:05.692Z,55.76
2022-10-28T05:37:32.440Z,56.16
2022-10-28T05:39:59.119Z,55.70
2022-10-28T05:42:25.708Z,55.92
2022-10-28T05:44:52.358Z,56.26
2022-10-28T05:47:19.011Z,56.60
2022-10-28T05:49:45.689Z,56.18
2022-10-28T05:52:12.376Z,55.69
2022-10-28T05:54:38.962Z,55.39
2022-10-28T05:57:05.663Z,55.60
2022-10-28T05:59:32.305Z,55.75
2022-10-28T06:01:59.025Z,56.40
2022-10-28T06:04:25.654Z,56.07
2022-10-28T06:06:55.288Z,56.04
2022-10-28T06:09:22.141Z,55.96
2022-10-28T06:11:47.282Z,56.55
2022-10-28T06:14:13.872Z,56.90
2022-10-28T06:16:40.540Z,57.91
2022-10-28T06:19:07.467Z,56.96
2022-10-28T06:21:34.059Z,57.29
2022-10-28T06:24:00.696Z,58.53
2022-10-28T06:26:27.290Z,57.80
2022-10-28T06:28:53.932Z,57.57
2022-10-28T06:31:20.542Z,58.82
2022-10-28T06:33:47.152Z,58.24
2022-10-28T06:36:13.851Z,57.50
2022-10-28T06:38:40.577Z,56.66
2022-10-28T06:41:07.243Z,56.35
2022-10-28T06:43:33.844Z,55.57
2022-10-28T06:46:02.192Z,55.91
2022-10-28T06:48:30.316Z,55.52
2022-10-28T06:50:58.166Z,55.42
2022-10-28T06:53:25.516Z,56.46
2022-10-28T06:55:56.226Z,55.74
2022-10-28T06:58:25.796Z,55.08
2022-10-28T07:00:53.317Z,54.83
2022-10-28T07:03:20.053Z,55.21
2022-10-28T07:05:49.242Z,56.61
2022-10-28T07:08:15.918Z,55.93
2022-10-28T07:10:42.699Z,55.86
2022-10-28T07:13:09.454Z,55.35
2022-10-28T07:15:36.066Z,55.13
2022-10-28T07:18:02.802Z,54.60
2022-10-28T07:20:32.049Z,54.82
2022-10-28T07:23:02.631Z,55.35
2022-10-28T07:25:30.889Z,54.66
2022-10-28T07:27:58.669Z,54.81
2022-10-28T07:30:25.819Z,53.78
2022-10-28T07:32:52.802Z,54.04
2022-10-28T07:35:20.573Z,55.06
2022-10-28T07:37:47.602Z,54.03
2022-10-28T07:40:14.584Z,53.89
2022-10-28T07:42:41.231Z,53.00
2022-10-28T07:45:08.223Z,54.08
2022-10-28T07:47:35.119Z,54.54
2022-10-28T07:50:02.131Z,53.64
2022-10-28T07:52:28.817Z,54.31
2022-10-28T07:54:55.447Z,53.51
2022-10-28T07:57:22.042Z,52.77
2022-10-28T07:59:48.655Z,53.42
2022-10-28T08:02:20.727Z,52.70
2022-10-28T08:04:47.820Z,51.89
2022-10-28T08:07:15.526Z,52.06
2022-10-28T08:09:42.350Z,51.72
2022-10-28T08:12:09.843Z,51.41
2022-10-28T08:14:36.570Z,51.34
2022-10-28T08:17:03.215Z,51.26
2022-10-28T08:19:29.857Z,50.91
2022-10-28T08:21:56.841Z,50.69
2022-10-28T08:24:23.759Z,51.18
2022-10-28T08:26:50.832Z,51.67
2022-10-28T08:29:17.579Z,52.05
2022-10-28T08:31:44.210Z,51.55
2022-10-28T08:34:10.901Z,51.07
2022-10-28T08:36:37.636Z,51.56
2022-10-28T08:39:04.347Z,50.81
2022-10-28T08:41:52.604Z,50.94
2022-10-28T08:44:56.946Z,50.33
2022-10-28T08:47:53.204Z,50.36
2022-10-28T08:50:23.031Z,50.82
2022-10-28T08:53:06.711Z,50.39
2022-10-28T08:55:41.341Z,49.83
2022-10-28T08:58:13.077Z,49.53
2022-10-28T09:00:43.366Z,48.96
2022-10-28T09:03:13.235Z,48.58
2022-10-28T09:05:44.867Z,49.19
2022-10-28T09:08:22.593Z,48.87
2022-10-28T09:11:01.115Z,48.80
2022-10-28T09:13:42.879Z,50.11
2022-10-28T09:16:11.303Z,49.21
2022-10-28T09:18:56.673Z,48.64
2022-10-28T09:21:32.886Z,48.48
2022-10-28T09:24:07.500Z,48.39
2022-10-28T09:27:00.940Z,48.41
2022-10-28T09:30:08.302Z,48.18
2022-10-28T09:32:37.393Z,47.34
2022-10-28T09:35:11.938Z,48.88
2022-10-28T09:37:44.631Z,48.08
2022-10-28T09:40:14.323Z,47.59
2022-10-28T09:42:49.190Z,47.15
2022-10-28T09:45:27.472Z,46.12
2022-10-28T09:48:33.150Z,47.28
2022-10-28T09:51:00.954Z,46.51
2022-10-28T09:53:42.885Z,45.62
2022-10-28T09:56:10.234Z,45.50
2022-10-28T09:58:40.290Z,45.69
2022-10-28T10:01:06.991Z,46.09
2022-10-28T10:03:33.620Z,45.30
2022-10-28T10:06:11.819Z,46.14
2022-10-28T10:08:40.616Z,45.07
2022-10-28T10:11:30.579Z,45.23
2022-10-28T10:13:59.058Z,44.61
2022-10-28T10:16:56.646Z,44.80
2022-10-28T10:19:23.374Z,45.33
2022-10-28T10:21:55.445Z,44.27
2022-10-28T10:24:23.416Z,44.12
2022-10-28T10:26:51.414Z,43.06
2022-10-28T10:29:18.478Z,42.87
2022-10-28T10:31:46.981Z,43.13
2022-10-28T10:34:27.340Z,42.34
2022-10-28T10:36:56.244Z,42.76
2022-10-28T10:39:37.361Z,42.38
2022-10-28T10:42:16.487Z,42.44
2022-10-28T10:44:43.630Z,41.70
2022-10-28T10:47:10.185Z,41.91
2022-10-28T10:49:37.120Z,42.45
2022-10-28T10:52:15.523Z,42.36
2022-10-28T10:54:56.904Z,42.38
2022-10-28T10:57:25.703Z,41.56
2022-10-28T10:59:54.441Z,41.61
2022-10-28T11:02:21.175Z,42.32
2022-10-28T11:05:02.948Z,41.85
2022-10-28T11:07:30.536Z,42.64
2022-10-28T11:09:57.490Z,42.86
2022-10-28T11:12:35.719Z,41.57
2022-10-28T11:15:23.098Z,41.22
2022-10-28T11:18:17.443Z,40.96
2022-10-28T11:20:55.129Z,40.21
2022-10-28T11:23:46.333Z,39.48
2022-10-28T11:26:16.205Z,39.80
2022-10-28T11:29:23.723Z,37.08
2022-10-28T11:32:08.970Z,37.81
2022-10-28T11:34:54.204Z,37.60
2022-10-28T11:37:47.657Z,37.06
2022-10-28T11:40:51.675Z,35.99
2022-10-28T11:43:55.062Z,34.77
2022-10-28T11:46:43.834Z,34.51
2022-10-28T11:49:25.208Z,34.55
2022-10-28T11:51:57.433Z,36.59
2022-10-28T11:54:31.691Z,35.05
2022-10-28T11:57:09.003Z,34.91
2022-10-28T12:00:00.617Z,33.86
2022-10-28T12:03:14.950Z,34.56
2022-10-28T12:05:55.020Z,34.06
2022-10-28T12:08:30.363Z,34.06
2022-10-28T12:11:11.877Z,34.52
2022-10-28T12:13:42.147Z,34.53
2022-10-28T12:16:17.326Z,34.04
2022-10-28T12:18:51.633Z,34.81
2022-10-28T12:21:24.349Z,34.31
2022-10-28T12:23:53.990Z,34.23
2022-10-28T12:26:24.738Z,33.73
2022-10-28T12:29:01.876Z,33.55
2022-10-28T12:31:34.752Z,33.37
2022-10-28T12:34:09.104Z,34.02
2022-10-28T12:37:04.580Z,34.68
2022-10-28T12:39:55.577Z,35.47
2022-10-28T12:42:40.133Z,35.46
2022-10-28T12:45:13.128Z,35.67
2022-10-28T12:47:53.111Z,35.37
2022-10-28T12:50:19.688Z,35.42
2022-10-28T12:53:01.867Z,35.61
2022-10-28T12:55:35.202Z,35.02
2022-10-28T12:58:22.323Z,35.02
2022-10-28T13:00:54.582Z,35.23
2022-10-28T13:03:21.277Z,35.24
2022-10-28T13:05:50.869Z,34.79
2022-10-28T13:08:47.187Z,34.96
2022-10-28T13:11:19.658Z,34.62
2022-10-28T13:14:18.287Z,34.45
2022-10-28T13:16:51.003Z,34.77
2022-10-28T13:19:20.329Z,34.49
2022-10-28T13:22:11.142Z,34.60
2022-10-28T13:24:55.018Z,34.77
2022-10-28T13:27:22.818Z,35.31
2022-10-28T13:29:56.433Z,35.45
2022-10-28T13:32:39.668Z,35.19
2022-10-28T13:35:24.327Z,34.83
2022-10-28T13:37:54.180Z,35.35
2022-10-28T13:40:43.056Z,34.70
2022-10-28T13:43:20.427Z,35.47
2022-10-28T13:45:48.724Z,35.12
2022-10-28T13:48:30.607Z,35.18
2022-10-28T13:51:09.439Z,34.50
2022-10-28T13:53:45.106Z,34.65
2022-10-28T13:56:20.815Z,34.40
2022-10-28T13:58:59.753Z,34.45
2022-10-28T14:01:37.557Z,34.38
2022-10-28T14:04:05.972Z,34.84
2022-10-28T14:06:35.265Z,34.66
2022-10-28T14:09:02.150Z,34.87
2022-10-28T14:11:30.460Z,35.14
2022-10-28T14:14:01.255Z,35.13
2022-10-28T14:16:44.223Z,35.90
2022-10-28T14:19:10.793Z,35.75
2022-10-28T14:21:51.513Z,35.50
2022-10-28T14:24:38.538Z,36.09
2022-10-28T14:27:08.318Z,36.35
2022-10-28T14:29:45.123Z,36.52
2022-10-28T14:32:33.492Z,36.73
2022-10-28T14:35:19.856Z,36.58
2022-10-28T14:37:55.559Z,37.01
2022-10-28T14:40:24.593Z,36.81
2022-10-28T14:43:27.913Z,36.93
2022-10-28T14:46:09.847Z,37.26
2022-10-28T14:48:47.198Z,37.01
2022-10-28T14:51:18.435Z,37.19
2022-10-28T14:53:46.504Z,37.31
2022-10-28T14:59:00.757Z,37.22
2022-10-28T15:01:35.164Z,37.43
2022-10-28T15:04:04.046Z,37.51
2022-10-28T15:06:41.690Z,37.88
2022-10-28T15:09:17.755Z,37.88
2022-10-28T15:11:49.689Z,38.14
2022-10-28T15:14:37.932Z,38.36
2022-10-28T15:17:13.966Z,38.09
2022-10-28T15:19:41.538Z,38.02
2022-10-28T15:22:20.001Z,38.13
2022-10-28T15:25:14.354Z,38.56
2022-10-28T15:27:44.700Z,38.76
2022-10-28T15:30:25.851Z,38.55
2022-10-28T15:32:54.063Z,38.90
2022-10-28T15:35:38.583Z,38.93
2022-10-28T15:38:38.185Z,39.24
2022-10-28T15:41:22.858Z,39.70
2022-10-28T15:44:03.383Z,39.59
2022-10-28T15:46:32.228Z,39.46
2022-10-28T15:49:01.354Z,39.34
2022-10-28T15:51:28.753Z,41.73
2022-10-28T15:54:10.490Z,46.67
2022-10-28T15:56:57.826Z,48.77
2022-10-28T15:59:25.734Z,48.69
2022-10-28T16:01:56.226Z,48.13
2022-10-28T16:04:23.062Z,44.00
2022-10-28T16:06:52.692Z,43.09
2022-10-28T16:09:35.008Z,44.03
2022-10-28T16:12:22.532Z,43.78
2022-10-28T16:14:57.104Z,43.80
2022-10-28T16:17:27.227Z,43.69
2022-10-28T16:20:04.409Z,43.66
2022-10-28T16:22:35.342Z,43.27
2022-10-28T16:25:03.193Z,43.13
2022-10-28T16:27:33.045Z,43.23
2022-10-28T16:29:59.770Z,43.18
2022-10-28T16:32:35.402Z,42.71
2022-10-28T16:35:02.703Z,42.61
2022-10-28T16:37:32.484Z,42.56
2022-10-28T16:39:59.255Z,42.71
2022-10-28T16:42:27.025Z,42.60
2022-10-28T16:44:53.693Z,42.97
2022-10-28T16:47:23.091Z,42.78
2022-10-28T16:49:54.116Z,43.34
2022-10-28T16:52:27.573Z,43.24
2022-10-28T16:54:54.428Z,42.89
2022-10-28T16:57:21.594Z,43.00
2022-10-28T16:59:48.507Z,42.12
2022-10-28T17:02:30.281Z,42.51
2022-10-28T17:04:57.901Z,42.65
2022-10-28T17:07:25.287Z,42.79
2022-10-28T17:09:52.525Z,43.07
2022-10-28T17:12:37.747Z,43.38
2022-10-28T17:15:18.049Z,48.30
2022-10-28T17:17:45.032Z,44.24
2022-10-28T17:20:11.871Z,44.18
2022-10-28T17:22:40.038Z,44.28
2022-10-28T17:25:08.078Z,44.54
2022-10-28T17:27:34.775Z,44.37
2022-10-28T17:30:01.493Z,44.61
2022-10-28T17:32:28.264Z,44.13
2022-10-28T17:34:54.860Z,44.05
2022-10-28T17:37:21.644Z,43.96
2022-10-28T17:39:48.342Z,43.54
2022-10-28T17:42:15.024Z,43.39
2022-10-28T17:44:41.604Z,43.45
2022-10-28T17:47:08.330Z,43.46
2022-10-28T17:49:36.568Z,43.58
2022-10-28T17:52:03.318Z,43.66
2022-10-28T17:54:29.967Z,43.32
2022-10-28T17:56:56.948Z,43.57
2022-10-28T17:59:23.735Z,43.84
2022-10-28T18:01:50.550Z,43.57
2022-10-28T18:04:17.565Z,43.59
2022-10-28T18:06:44.194Z,43.68
2022-10-28T18:09:13.845Z,43.87
2022-10-28T18:11:40.889Z,43.80
2022-10-28T18:14:07.548Z,43.62
2022-10-28T18:16:36.489Z,43.54
2022-10-28T18:19:05.488Z,43.46
2022-10-28T18:21:32.312Z,43.30
2022-10-28T18:24:04.030Z,43.59
2022-10-28T18:26:32.471Z,43.42
2022-10-28T18:28:59.543Z,43.43
2022-10-28T18:31:26.258Z,43.56
2022-10-28T18:33:53.259Z,43.71
2022-10-28T18:36:23.758Z,43.52
2022-10-28T18:38:51.176Z,43.71
2022-10-28T18:41:20.213Z,43.58
2022-10-28T18:43:47.114Z,43.71
2022-10-28T18:46:14.976Z,43.71
2022-10-28T18:48:42.226Z,43.68
2022-10-28T18:51:12.517Z,43.54
2022-10-28T18:53:41.948Z,43.68
2022-10-28T18:56:12.354Z,43.75
2022-10-28T18:58:39.383Z,43.41
2022-10-28T19:01:11.540Z,43.74
2022-10-28T19:03:38.567Z,43.54
2022-10-28T19:06:11.075Z,43.76
2022-10-28T19:08:38.248Z,43.78
2022-10-28T19:11:05.737Z,43.73
2022-10-28T19:13:34.167Z,44.05
2022-10-28T19:16:00.882Z,44.13
2022-10-28T19:18:27.898Z,44.32
2022-10-28T19:21:00.984Z,44.23
2022-10-28T19:23:27.584Z,44.40
2022-10-28T19:25:56.072Z,44.17
2022-10-28T19:28:23.253Z,44.17
2022-10-28T19:30:50.258Z,44.39
2022-10-28T19:33:16.895Z,44.18
2022-10-28T19:35:43.491Z,44.24
2022-10-28T19:38:10.124Z,44.29
2022-10-28T19:40:36.675Z,44.02
2022-10-28T19:43:03.301Z,44.19
2022-10-28T19:45:29.965Z,44.25
2022-10-28T19:48:01.190Z,44.33
2022-10-28T19:50:28.148Z,44.76
2022-10-28T19:52:54.795Z,44.50
2022-10-28T19:55:21.512Z,44.52
2022-10-28T19:57:50.404Z,44.48
2022-10-28T20:00:19.577Z,44.51
2022-10-28T20:02:47.493Z,44.50
2022-10-28T20:05:14.202Z,44.53
2022-10-28T20:07:40.793Z,44.72
2022-10-28T20:10:08.087Z,44.56
2022-10-28T20:12:34.675Z,44.75
2022-10-28T20:15:01.753Z,44.95
2022-10-28T20:17:28.361Z,45.19
2022-10-28T20:19:54.961Z,45.17
2022-10-28T20:22:21.553Z,45.30
2022-10-28T20:24:48.182Z,45.30
2022-10-28T20:27:14.831Z,45.60
2022-10-28T20:29:41.393Z,45.81
2022-10-28T20:32:08.024Z,45.59
2022-10-28T20:34:34.733Z,45.78
2022-10-28T20:37:01.932Z,45.77
2022-10-28T20:39:28.553Z,45.97
2022-10-28T20:41:55.162Z,46.16
2022-10-28T20:44:21.929Z,46.09
2022-10-28T20:46:49.024Z,46.42
2022-10-28T20:49:15.726Z,46.34
2022-10-28T20:51:42.498Z,46.27
2022-10-28T20:54:09.272Z,46.31
2022-10-28T20:56:38.321Z,46.37
2022-10-28T20:59:05.448Z,46.62
2022-10-28T21:01:37.670Z,46.54
2022-10-28T21:04:09.969Z,46.64
2022-10-28T21:06:37.984Z,46.58
2022-10-28T21:09:05.367Z,46.82
2022-10-28T21:11:32.113Z,46.61
2022-10-28T21:14:00.416Z,46.52
2022-10-28T21:16:27.915Z,46.89
2022-10-28T21:18:55.059Z,47.01
2022-10-28T21:21:23.168Z,46.79
2022-10-28T21:23:49.828Z,46.88
2022-10-28T21:26:17.067Z,46.68
2022-10-28T21:28:44.340Z,47.07
2022-10-28T21:31:16.302Z,47.16
2022-10-28T21:33:43.412Z,47.64
2022-10-28T21:36:12.916Z,47.68
2022-10-28T21:38:40.173Z,47.70
2022-10-28T21:41:12.834Z,47.54
2022-10-28T21:43:41.896Z,47.55
2022-10-28T21:46:08.874Z,47.75
2022-10-28T21:48:36.767Z,47.65
2022-10-28T21:51:08.547Z,47.64
2022-10-28T21:53:38.920Z,47.99
2022-10-28T21:56:15.584Z,48.12
2022-10-28T21:58:44.167Z,48.51
2022-10-28T22:01:13.158Z,48.24
2022-10-28T22:03:39.966Z,48.67
2022-10-28T22:06:07.039Z,48.73
2022-10-28T22:08:33.773Z,48.44
2022-10-28T22:11:06.256Z,48.68
2022-10-28T22:13:34.445Z,48.68
2022-10-28T22:16:04.041Z,48.50
2022-10-28T22:18:32.437Z,48.63
2022-10-28T22:21:11.145Z,48.34
2022-10-28T22:23:38.439Z,48.64
2022-10-28T22:26:07.979Z,48.92
2022-10-28T22:28:34.973Z,48.92
2022-10-28T22:31:04.306Z,49.02
2022-10-28T22:33:31.000Z,48.81
2022-10-28T22:35:58.984Z,48.52
2022-10-28T22:38:26.262Z,48.22
2022-10-28T22:41:11.246Z,48.58
2022-10-28T22:43:38.668Z,48.72
2022-10-28T22:46:05.854Z,48.54
2022-10-28T22:48:32.806Z,48.89
2022-10-28T22:51:00.035Z,49.41
2022-10-28T22:53:26.742Z,49.05
2022-10-28T22:55:53.943Z,49.13
2022-10-28T22:58:21.623Z,49.08
2022-10-28T23:00:48.534Z,49.55
2022-10-28T23:03:15.514Z,49.38
2022-10-28T23:05:42.406Z,49.15
2022-10-28T23:08:14.093Z,48.98
2022-10-28T23:10:40.707Z,49.11
2022-10-28T23:13:08.687Z,49.51
2022-10-28T23:15:35.247Z,50.07
2022-10-28T23:18:01.826Z,49.83
2022-10-28T23:20:28.426Z,49.47
2022-10-28T23:22:56.367Z,49.72
2022-10-28T23:25:23.205Z,49.77
2022-10-28T23:27:49.801Z,49.98
2022-10-28T23:30:16.490Z,49.85
2022-10-28T23:32:43.137Z,49.19
2022-10-28T23:35:09.972Z,49.38
2022-10-28T23:37:36.689Z,49.37
2022-10-28T23:40:03.661Z,49.18
2022-10-28T23:42:30.305Z,48.92
2022-10-28T23:44:56.937Z,49.11
2022-10-28T23:47:23.488Z,48.96
2022-10-28T23:49:50.120Z,49.02
2022-10-28T23:52:16.788Z,49.26
2022-10-28T23:54:43.397Z,49.13
2022-10-28T23:57:10.010Z,49.21
2022-10-28T23:59:36.687Z,49.11
